Time;durP1;ratioP1;P1;durP2;ratioP2;P2;SDS_P1;SDS_P2;PMS_P1;PMS_P2;Temp;Humidity;BMP_temperature;BMP_pressure;BME280_temperature;BME280_humidity;BME280_pressure;Samples;Min_cycle;Max_cycle;Signal;HPM_P1;HPM_P2
2022/06/21 00:00:32;;;;;;;13.82;4.80;;;;;;;12.04;100.00;101798.47;5030647;28;20036;-64
2022/06/21 00:03:10;;;;;;;11.32;4.60;;;;;;;12.01;100.00;101794.16;5031581;28;20025;-64
2022/06/21 00:05:41;;;;;;;13.38;5.20;;;;;;;11.95;100.00;101781.06;5032056;28;20474;-65
2022/06/21 00:08:13;;;;;;;13.52;4.53;;;;;;;11.88;100.00;101779.53;5031365;28;20112;-64
2022/06/21 00:10:38;;;;;;;11.82;4.85;;;;;;;11.84;100.00;101780.56;5031705;28;20473;-64
2022/06/21 00:13:13;;;;;;;11.27;4.93;;;;;;;11.81;100.00;101786.84;5031649;28;20034;-64
2022/06/21 00:15:39;;;;;;;11.40;4.53;;;;;;;11.78;100.00;101779.84;5031644;28;20477;-64
2022/06/21 00:18:05;;;;;;;11.32;5.22;;;;;;;11.77;100.00;101778.13;5031403;28;20151;-65
2022/06/21 00:20:30;;;;;;;10.57;4.60;;;;;;;11.80;100.00;101782.44;5030166;28;20503;-65
2022/06/21 00:22:56;;;;;;;11.90;5.38;;;;;;;11.80;100.00;101770.06;5031577;28;20108;-65
2022/06/21 00:25:26;;;;;;;15.90;5.20;;;;;;;11.77;100.00;101770.16;5031772;28;20037;-65
2022/06/21 00:27:54;;;;;;;13.88;5.30;;;;;;;11.76;100.00;101784.34;5029608;28;20482;-65
2022/06/21 00:30:21;;;;;;;12.80;5.28;;;;;;;11.84;100.00;101784.09;5038029;28;20041;-65
2022/06/21 00:32:50;;;;;;;10.40;5.22;;;;;;;11.91;100.00;101774.97;5029650;28;20576;-65
2022/06/21 00:35:18;;;;;;;13.55;5.03;;;;;;;11.91;100.00;101772.31;5030184;28;20547;-65
2022/06/21 00:37:44;;;;;;;12.10;5.07;;;;;;;11.85;100.00;101766.38;5031360;28;20032;-64
2022/06/21 00:40:18;;;;;;;11.30;4.93;;;;;;;11.78;100.00;101760.44;5031617;28;20034;-65
2022/06/21 00:42:50;;;;;;;11.65;5.28;;;;;;;11.68;100.00;101757.22;5031268;28;20547;-64
2022/06/21 00:45:31;;;;;;;14.80;5.63;;;;;;;11.57;100.00;101741.69;5031513;28;20116;-64
2022/06/21 00:48:01;;;;;;;11.30;5.85;;;;;;;11.51;100.00;101757.81;5031018;28;20049;-64
2022/06/21 00:50:34;;;;;;;11.70;5.10;;;;;;;11.52;100.00;101746.28;5031359;28;20083;-64
2022/06/21 00:53:10;;;;;;;11.52;5.47;;;;;;;11.56;100.00;101755.88;5030996;28;20044;-64
2022/06/21 00:55:45;;;;;;;12.40;5.43;;;;;;;11.57;100.00;101749.66;5031239;28;20477;-64
2022/06/21 00:58:13;;;;;;;11.85;5.20;;;;;;;11.54;100.00;101747.09;5029860;28;20032;-64
2022/06/21 01:00:43;;;;;;;11.50;5.45;;;;;;;11.47;100.00;101746.44;5015652;28;20033;-64
2022/06/21 01:03:25;;;;;;;14.70;5.55;;;;;;;11.44;100.00;101743.88;5046387;28;20087;-65
2022/06/21 01:05:53;;;;;;;11.45;5.47;;;;;;;11.43;100.00;101744.81;5031095;28;20112;-65
2022/06/21 01:08:24;;;;;;;11.25;5.38;;;;;;;11.45;100.00;101739.44;5034774;28;20030;-65
2022/06/21 01:11:01;;;;;;;12.98;5.35;;;;;;;11.43;100.00;101728.00;5034550;28;20483;-65
2022/06/21 01:13:31;;;;;;;11.98;5.50;;;;;;;11.38;100.00;101727.31;5034804;28;20030;-65
2022/06/21 01:15:57;;;;;;;14.80;5.40;;;;;;;11.34;100.00;101734.50;5034906;28;20021;-65
2022/06/21 01:18:24;;;;;;;16.33;5.63;;;;;;;11.32;100.00;101731.03;5034973;28;20036;-65
2022/06/21 01:20:55;;;;;;;12.73;5.68;;;;;;;11.32;100.00;101721.28;5034293;28;20026;-65
2022/06/21 01:23:28;;;;;;;13.68;5.75;;;;;;;11.33;100.00;101730.13;5033242;28;20021;-65
2022/06/21 01:25:59;;;;;;;13.75;5.20;;;;;;;11.29;100.00;101725.81;5034757;28;20029;-64
2022/06/21 01:28:25;;;;;;;11.00;5.40;;;;;;;11.27;100.00;101736.47;5034864;28;20108;-65
2022/06/21 01:30:53;;;;;;;11.63;5.57;;;;;;;11.25;100.00;101740.09;5033983;28;20446;-65
2022/06/21 01:33:27;;;;;;;13.45;5.72;;;;;;;11.25;100.00;101732.16;5034340;28;20079;-65
2022/06/21 01:35:56;;;;;;;11.35;5.50;;;;;;;11.25;100.00;101741.00;5033668;28;20087;-65
2022/06/21 01:38:29;;;;;;;13.68;5.47;;;;;;;11.24;100.00;101741.91;5034784;28;20523;-65
2022/06/21 01:41:01;;;;;;;12.73;5.13;;;;;;;11.24;100.00;101733.06;5033036;28;20107;-65
2022/06/21 01:43:29;;;;;;;11.32;5.05;;;;;;;11.21;100.00;101739.34;5032919;28;20057;-66
2022/06/21 01:46:00;;;;;;;9.68;5.38;;;;;;;11.19;100.00;101746.50;5034465;28;20141;-65
2022/06/21 01:48:29;;;;;;;;;;;;;;;11.16;100.00;101738.63;5034739;28;20041;-65
2022/06/21 01:51:01;;;;;;;13.27;5.28;;;;;;;11.12;100.00;101743.16;5033800;28;19959;-65
2022/06/21 01:53:28;;;;;;;12.82;5.47;;;;;;;11.09;100.00;101734.47;5032560;28;20017;-65
2022/06/21 01:55:58;;;;;;;13.32;5.28;;;;;;;11.05;100.00;101735.44;5034373;28;20477;-65
2022/06/21 01:58:27;;;;;;;11.13;5.15;;;;;;;11.04;100.00;101737.25;5034170;28;20469;-65
2022/06/21 02:00:57;;;;;;;11.35;5.57;;;;;;;11.02;100.00;101749.66;5033802;28;20084;-64
2022/06/21 02:03:30;;;;;;;12.70;5.32;;;;;;;11.01;100.00;101747.97;5033709;28;20072;-65
2022/06/21 02:05:58;;;;;;;12.18;5.82;;;;;;;11.02;100.00;101756.78;5032616;28;20483;-63
2022/06/21 02:08:29;;;;;;;12.48;5.80;;;;;;;11.00;100.00;101743.56;5032710;28;20033;-64
2022/06/21 02:11:01;;;;;;;10.88;5.50;;;;;;;10.96;100.00;101734.00;5032296;28;20037;-65
2022/06/21 02:13:36;;;;;;;12.82;5.75;;;;;;;10.91;100.00;101731.47;5033672;28;20025;-64
2022/06/21 02:16:11;;;;;;;12.63;5.45;;;;;;;10.86;100.00;101740.47;5033736;28;20029;-65
2022/06/21 02:18:41;;;;;;;12.07;6.28;;;;;;;10.82;100.00;101734.44;5032857;28;20040;-65
2022/06/21 02:21:17;;;;;;;13.85;6.10;;;;;;;10.78;100.00;101728.34;5033152;28;20086;-65
2022/06/21 02:23:49;;;;;;;11.82;5.53;;;;;;;10.78;100.00;101730.13;5033278;28;20029;-65
2022/06/21 02:26:15;;;;;;;;;;;;;;;10.78;100.00;101725.69;5034083;28;20029;-65
2022/06/21 02:28:41;;;;;;;10.15;5.72;;;;;;;10.76;100.00;101724.00;5033472;28;20393;-65
2022/06/21 02:31:09;;;;;;;14.50;5.35;;;;;;;10.73;100.00;101717.03;5032050;28;20028;-64
2022/06/21 02:33:36;;;;;;;16.40;5.68;;;;;;;10.70;100.00;101706.50;5033215;28;20389;-65
2022/06/21 02:36:10;;;;;;;12.30;5.75;;;;;;;10.66;100.00;101704.88;5033410;28;20030;-65
2022/06/21 02:38:54;;;;;;;12.18;6.10;;;;;;;10.63;100.00;101708.50;5033269;28;20025;-65
2022/06/21 02:41:28;;;;;;;13.23;6.60;;;;;;;10.59;100.00;101692.78;5033070;28;20113;-64
2022/06/21 02:44:09;;;;;;;14.32;6.25;;;;;;;10.55;100.00;101683.16;5033169;28;20029;-65
2022/06/21 02:46:38;;;;;;;11.17;6.47;;;;;;;10.50;100.00;101683.31;5033055;28;20037;-64
2022/06/21 02:49:11;;;;;;;12.10;6.38;;;;;;;10.49;100.00;101676.28;5033101;28;20025;-65
2022/06/21 02:51:50;;;;;;;12.63;6.57;;;;;;;10.47;100.00;101662.22;5032817;28;20028;-65
2022/06/21 02:54:25;;;;;;;11.60;6.60;;;;;;;10.46;100.00;101644.59;5032857;28;20018;-64
2022/06/21 02:57:11;;;;;;;15.60;6.78;;;;;;;10.46;100.00;101650.78;5032958;28;20033;-65
2022/06/21 02:59:39;;;;;;;10.57;6.35;;;;;;;10.52;100.00;101656.78;5032996;28;20481;-64
2022/06/21 03:02:10;;;;;;;14.73;6.63;;;;;;;10.59;100.00;101661.84;5032563;28;20121;-64
2022/06/21 03:04:51;;;;;;;13.90;7.33;;;;;;;10.69;100.00;101666.84;5032512;28;20040;-63
2022/06/21 03:07:22;;;;;;;12.15;6.80;;;;;;;10.70;100.00;101666.78;5032882;28;20036;-65
2022/06/21 03:09:47;;;;;;;13.30;7.28;;;;;;;10.67;100.00;101661.59;5032549;28;20539;-65
2022/06/21 03:12:19;;;;;;;11.57;6.28;;;;;;;10.63;100.00;101666.13;5032318;28;20018;-65
2022/06/21 03:14:46;;;;;;;12.52;6.40;;;;;;;10.61;100.00;101678.56;5031082;28;20021;-65
2022/06/21 03:17:16;;;;;;;13.55;6.55;;;;;;;10.59;100.00;101666.28;5032491;28;20041;-65
2022/06/21 03:19:51;;;;;;;11.93;7.15;;;;;;;10.57;100.00;101662.81;5031090;28;20025;-65
2022/06/21 03:22:23;;;;;;;14.20;7.72;;;;;;;10.55;100.00;101670.81;5031951;28;20104;-65
2022/06/21 03:24:52;;;;;;;16.10;7.50;;;;;;;10.57;100.00;101668.94;5032039;28;20033;-66
2022/06/21 03:27:22;;;;;;;16.17;7.22;;;;;;;10.59;100.00;101685.69;5032285;28;20401;-65
2022/06/21 03:29:48;;;;;;;14.50;7.00;;;;;;;10.67;100.00;101687.22;5031009;28;20150;-65
2022/06/21 03:32:14;;;;;;;12.00;6.70;;;;;;;10.70;100.00;101687.97;5032355;28;20028;-65
2022/06/21 03:34:40;;;;;;;13.77;7.10;;;;;;;10.69;100.00;101678.31;5014215;28;20029;-64
2022/06/21 03:37:06;;;;;;;12.73;7.05;;;;;;;10.68;100.00;101665.09;5032319;28;20033;-64
2022/06/21 03:42:19;;;;;;;15.10;7.45;;;;;;;10.65;100.00;101661.66;5032136;28;20065;-64
2022/06/21 03:44:54;;;;;;;14.05;7.43;;;;;;;10.64;100.00;101649.31;5030071;28;20029;-64
2022/06/21 03:47:35;;;;;;;15.23;7.18;;;;;;;10.64;100.00;101637.88;5032081;28;20049;-64
2022/06/21 03:50:27;;;;;;;18.92;8.00;;;;;;;10.64;100.00;101625.47;5030985;28;20077;-66
2022/06/21 03:53:06;;;;;;;13.70;7.80;;;;;;;10.63;100.00;101642.28;5019734;28;20099;-65
2022/06/21 03:55:43;;;;;;;13.95;7.05;;;;;;;10.70;100.00;101642.09;5031348;28;20036;-65
2022/06/21 03:58:40;;;;;;;13.73;6.95;;;;;;;10.75;100.00;101646.31;5031919;28;20111;-65
2022/06/21 04:01:23;;;;;;;17.95;7.53;;;;;;;10.74;100.00;101639.31;5009145;28;20080;-65
2022/06/21 04:03:57;;;;;;;14.50;8.07;;;;;;;10.73;100.00;101629.59;5031448;28;20481;-64
2022/06/21 04:06:33;;;;;;;15.45;7.80;;;;;;;10.75;100.00;101626.91;5031422;28;20037;-65
2022/06/21 04:09:08;;;;;;;14.25;7.60;;;;;;;10.72;100.00;101624.38;5031760;28;20025;-65
2022/06/21 04:11:40;;;;;;;12.48;8.60;;;;;;;10.74;100.00;101618.09;5011841;28;20022;-66
2022/06/21 04:14:26;;;;;;;16.65;9.38;;;;;;;10.78;100.00;101616.19;5027997;28;20033;-65
2022/06/21 04:17:23;;;;;;;17.88;9.48;;;;;;;10.88;100.00;101630.00;5011758;28;20080;-65
2022/06/21 04:19:52;;;;;;;17.30;8.55;;;;;;;11.04;100.00;101625.94;5011360;28;20084;-65
2022/06/21 04:22:31;;;;;;;17.73;9.05;;;;;;;11.12;100.00;101615.06;5010403;28;20025;-65
2022/06/21 04:25:24;;;;;;;15.88;8.45;;;;;;;11.18;100.00;101612.19;5014551;28;20041;-65
2022/06/21 04:27:58;;;;;;;16.05;8.20;;;;;;;11.25;100.00;101612.84;5027532;28;20038;-65
2022/06/21 04:30:28;;;;;;;20.08;8.02;;;;;;;11.34;100.00;101611.66;5031737;28;20064;-65
2022/06/21 04:33:03;;;;;;;17.75;8.52;;;;;;;11.41;100.00;101608.72;5031677;28;20406;-65
2022/06/21 04:35:34;;;;;;;15.18;7.47;;;;;;;11.47;100.00;101618.22;5029857;28;20110;-66
2022/06/21 04:38:26;;;;;;;13.23;7.90;;;;;;;11.56;100.00;101625.00;5031636;28;20053;-66
2022/06/21 04:40:58;;;;;;;12.82;8.70;;;;;;;11.69;100.00;101626.28;5031182;28;20025;-66
2022/06/21 04:43:41;;;;;;;;;;;;;;;11.73;100.00;101617.28;5034793;28;20036;-64
2022/06/21 04:46:27;;;;;;;16.42;7.88;;;;;;;11.87;100.00;101621.22;5034705;28;19913;-65
2022/06/21 04:49:19;;;;;;;15.48;7.75;;;;;;;11.96;100.00;101626.22;5033775;28;20052;-65
2022/06/21 04:51:57;;;;;;;;;;;;;;;11.93;100.00;101613.91;5035519;28;20362;-65
2022/06/21 04:54:25;;;;;;;16.90;8.27;;;;;;;11.92;100.00;101617.47;5035110;28;19909;-65
2022/06/21 04:57:09;;;;;;;12.70;7.88;;;;;;;11.95;100.00;101622.69;5034642;28;20108;-64
2022/06/21 04:59:54;;;;;;;15.82;7.72;;;;;;;12.02;100.00;101625.09;5034822;28;20527;-66
2022/06/21 05:02:29;;;;;;;16.05;8.52;;;;;;;12.12;100.00;101622.06;5035183;28;20028;-66
2022/06/21 05:05:09;;;;;;;16.85;8.13;;;;;;;12.21;100.00;101626.16;5034964;28;20041;-66
2022/06/21 05:07:42;;;;;;;15.45;8.20;;;;;;;12.29;100.00;101621.38;5034443;28;20496;-64
2022/06/21 05:10:17;;;;;;;16.17;8.50;;;;;;;12.38;100.00;101619.28;5033164;28;20682;-65
2022/06/21 05:12:44;;;;;;;14.77;7.93;;;;;;;12.44;100.00;101622.56;5034531;28;20053;-65
2022/06/21 05:15:24;;;;;;;12.23;7.53;;;;;;;12.49;100.00;101619.72;5032560;28;20125;-65
2022/06/21 05:18:03;;;;;;;11.75;7.35;;;;;;;12.56;100.00;101623.88;5034061;28;20036;-65
2022/06/21 05:20:35;;;;;;;18.23;8.07;;;;;;;12.63;100.00;101632.44;5034461;28;20022;-65
2022/06/21 05:23:04;;;;;;;16.50;8.18;;;;;;;12.67;100.00;101634.03;5034374;28;20488;-65
2022/06/21 05:25:35;;;;;;;13.82;7.05;;;;;;;12.72;100.00;101631.19;5032999;28;20041;-66
2022/06/21 05:28:09;;;;;;;15.63;8.45;;;;;;;12.76;100.00;101639.00;5034007;28;20036;-66
2022/06/21 05:30:55;;;;;;;14.70;7.63;;;;;;;12.87;100.00;101643.84;5030893;28;20038;-66
2022/06/21 05:33:33;;;;;;;13.75;6.65;;;;;;;12.99;100.00;101634.50;5018946;28;20535;-65
2022/06/21 05:36:01;;;;;;;14.45;6.72;;;;;;;13.07;100.00;101639.50;5034148;28;20113;-66
2022/06/21 05:38:31;;;;;;;12.13;6.20;;;;;;;13.08;100.00;101626.16;5034430;28;20078;-65
2022/06/21 05:41:30;;;;;;;12.73;6.00;;;;;;;13.15;100.00;101650.66;5034104;28;20339;-66
2022/06/21 05:44:12;;;;;;;14.10;5.90;;;;;;;13.27;100.00;101654.59;5033994;28;20018;-65
2022/06/21 05:46:46;;;;;;;14.00;5.57;;;;;;;13.33;100.00;101654.34;5032405;28;20032;-65
2022/06/21 05:49:24;;;;;;;12.85;6.35;;;;;;;13.37;100.00;101655.09;5032437;28;20025;-66
2022/06/21 05:51:53;;;;;;;11.07;6.30;;;;;;;13.39;100.00;101650.59;5033891;28;20023;-66
2022/06/21 05:54:22;;;;;;;12.85;6.90;;;;;;;13.48;100.00;101652.84;5030183;28;20488;-64
2022/06/21 05:56:49;;;;;;;16.33;6.82;;;;;;;13.53;100.00;101653.50;5030808;28;20029;-66
2022/06/21 05:59:18;;;;;;;15.70;6.75;;;;;;;13.58;100.00;101650.63;5031525;28;20128;-65
2022/06/21 06:01:52;;;;;;;15.70;6.47;;;;;;;13.69;100.00;101658.97;5032532;28;20124;-67
2022/06/21 06:04:26;;;;;;;14.93;7.45;;;;;;;13.77;100.00;101659.53;5033824;28;20033;-65
2022/06/21 06:06:54;;;;;;;15.48;7.90;;;;;;;13.86;100.00;101655.59;5033442;28;20043;-65
2022/06/21 06:09:25;;;;;;;17.52;7.28;;;;;;;13.96;100.00;101658.66;5033403;28;20029;-64
2022/06/21 06:11:57;;;;;;;13.77;7.03;;;;;;;14.07;100.00;101664.38;5025758;28;20056;-64
2022/06/21 06:14:27;;;;;;;11.68;6.53;;;;;;;14.19;100.00;101670.06;5031386;28;20022;-65
2022/06/21 06:16:56;;;;;;;14.55;6.80;;;;;;;14.31;100.00;101658.84;5032542;28;20074;-65
2022/06/21 06:19:41;;;;;;;13.50;5.20;;;;;;;14.50;100.00;101668.59;5028347;28;20056;-65
2022/06/21 06:22:06;;;;;;;12.25;5.18;;;;;;;14.55;100.00;101679.91;5033205;28;20419;-66
2022/06/21 06:24:50;;;;;;;12.57;4.78;;;;;;;14.55;100.00;101680.78;5031609;28;20021;-66
2022/06/21 06:27:53;;;;;;;16.67;4.75;;;;;;;14.48;100.00;101684.66;5031744;28;20037;-65
2022/06/21 06:30:26;;;;;;;11.43;4.60;;;;;;;14.41;100.00;101689.44;5033200;28;20029;-66
2022/06/21 06:33:22;;;;;;;15.13;5.15;;;;;;;14.38;100.00;101692.22;5032268;28;20049;-65
2022/06/21 06:35:49;;;;;;;11.43;4.53;;;;;;;14.32;100.00;101697.88;5033780;28;20376;-65
2022/06/21 06:38:16;;;;;;;10.75;4.43;;;;;;;14.32;100.00;101687.22;5033160;28;20087;-65
2022/06/21 06:40:54;;;;;;;8.55;4.63;;;;;;;14.40;100.00;101692.19;5033096;28;20029;-66
2022/06/21 06:43:45;;;;;;;12.27;5.20;;;;;;;14.45;100.00;101692.81;5026593;28;20053;-66
2022/06/21 06:46:27;;;;;;;8.43;4.50;;;;;;;14.49;100.00;101689.06;5031848;28;20033;-64
2022/06/21 06:49:04;;;;;;;10.43;4.47;;;;;;;14.62;100.00;101701.81;5032353;28;20056;-66
2022/06/21 06:51:53;;;;;;;9.93;4.30;;;;;;;14.70;100.00;101699.66;5033854;28;20036;-65
2022/06/21 06:54:31;;;;;;;10.75;3.92;;;;;;;14.69;100.00;101697.94;5031110;28;20037;-65
2022/06/21 06:57:17;;;;;;;13.63;4.07;;;;;;;14.74;100.00;101701.22;5031228;28;20049;-65
2022/06/21 06:59:44;;;;;;;12.82;4.43;;;;;;;14.83;99.95;101691.94;5032001;28;20075;-64
2022/06/21 07:02:22;;;;;;;7.55;3.45;;;;;;;14.91;99.48;101703.94;5046316;28;20068;-66
2022/06/21 07:04:57;;;;;;;13.20;3.53;;;;;;;15.04;98.13;101690.88;5031466;28;20124;-66
2022/06/21 07:07:29;;;;;;;11.48;3.90;;;;;;;15.16;98.52;101684.03;5017129;28;20025;-65
2022/06/21 07:09:59;;;;;;;8.88;3.95;;;;;;;15.28;98.58;101692.38;5028029;28;20392;-65
2022/06/21 07:12:28;;;;;;;10.50;3.60;;;;;;;15.33;97.42;101693.88;5020500;28;20018;-65
2022/06/21 07:14:55;;;;;;;12.05;3.50;;;;;;;15.33;97.52;101701.00;5030869;28;20079;-65
2022/06/21 07:17:31;;;;;;;12.27;3.83;;;;;;;15.44;97.08;101693.31;5035575;28;20029;-65
2022/06/21 07:19:57;;;;;;;8.25;3.40;;;;;;;15.51;95.95;101699.19;5040950;28;20021;-63
2022/06/21 07:22:33;;;;;;;8.18;3.70;;;;;;;15.61;94.68;101700.44;5029546;28;20500;-63
2022/06/21 07:25:24;;;;;;;11.23;3.13;;;;;;;15.78;94.62;101696.88;5030828;28;20033;-64
2022/06/21 07:27:54;;;;;;;8.50;3.53;;;;;;;15.92;93.91;101703.31;5033043;28;20025;-63
2022/06/21 07:30:28;;;;;;;8.67;3.57;;;;;;;15.99;94.44;101692.22;5031108;28;20516;-64
2022/06/21 07:32:58;;;;;;;9.27;3.25;;;;;;;16.03;92.45;101695.59;5022180;28;20021;-64
2022/06/21 07:35:29;;;;;;;9.02;3.10;;;;;;;16.12;91.85;101688.88;5029287;28;20432;-64
2022/06/21 07:38:08;;;;;;;11.98;3.30;;;;;;;16.19;91.82;101685.78;5031318;28;20060;-65
2022/06/21 07:40:46;;;;;;;10.38;3.35;;;;;;;16.08;89.88;101682.84;5010729;28;20473;-65
2022/06/21 07:43:19;;;;;;;8.70;3.22;;;;;;;16.04;89.23;101684.81;5017909;28;20485;-65
2022/06/21 07:45:58;;;;;;;8.13;3.38;;;;;;;16.02;89.60;101672.47;5031303;28;20025;-65
2022/06/21 07:48:30;;;;;;;11.55;3.67;;;;;;;16.11;89.35;101669.31;5031436;28;20541;-65
2022/06/21 07:51:08;;;;;;;10.65;3.83;;;;;;;16.24;90.01;101664.16;5031257;28;20029;-64
2022/06/21 07:53:41;;;;;;;8.80;3.67;;;;;;;16.36;89.72;101660.78;5029917;28;20040;-63
2022/06/21 07:56:41;;;;;;;7.78;3.30;;;;;;;16.46;88.82;101662.94;5031555;28;20026;-66
2022/06/21 07:59:20;;;;;;;8.43;3.42;;;;;;;16.57;90.15;101663.19;5046108;28;20036;-65
2022/06/21 08:07:39;;;;;;;7.07;3.08;;;;;;;16.80;86.49;101656.53;5025505;28;20183;-66
2022/06/21 08:10:14;;;;;;;5.97;2.90;;;;;;;16.93;85.53;101662.06;5030052;28;20033;-65
2022/06/21 08:12:39;;;;;;;8.05;3.22;;;;;;;17.01;85.11;101657.13;5023691;28;20026;-66
2022/06/21 08:15:05;;;;;;;7.28;2.80;;;;;;;17.15;84.70;101656.31;5029441;28;20032;-65
2022/06/21 08:17:47;;;;;;;8.50;3.10;;;;;;;17.17;82.60;101656.19;5025667;28;20076;-64
2022/06/21 08:20:32;;;;;;;10.82;3.55;;;;;;;17.30;83.07;101665.22;5024136;28;20021;-65
2022/06/21 08:23:11;;;;;;;7.72;2.92;;;;;;;17.46;82.00;101650.91;5029889;28;20042;-65
2022/06/21 08:25:53;;;;;;;8.93;3.00;;;;;;;17.49;79.37;101650.72;5031379;28;20017;-65
2022/06/21 08:28:27;;;;;;;8.20;2.92;;;;;;;17.45;79.46;101657.22;5030565;28;20226;-65
2022/06/21 08:31:05;;;;;;;6.82;2.60;;;;;;;17.47;78.67;101653.50;5029954;28;20403;-66
2022/06/21 08:34:00;;;;;;;9.60;2.50;;;;;;;17.73;79.06;101642.97;5029122;28;20452;-64
2022/06/21 08:36:29;;;;;;;6.90;2.80;;;;;;;18.06;76.20;101635.63;5030686;28;20044;-66
2022/06/21 08:39:07;;;;;;;10.35;3.15;;;;;;;18.46;72.84;101639.25;5032153;28;20030;-66
2022/06/21 08:41:57;;;;;;;5.50;2.80;;;;;;;19.60;68.94;101640.59;5031113;28;20104;-65
2022/06/21 08:44:47;;;;;;;7.93;2.40;;;;;;;21.22;62.53;101639.50;5031245;28;20022;-65
2022/06/21 08:47:49;;;;;;;10.98;3.20;;;;;;;22.02;58.19;101634.19;5030643;28;20392;-65
2022/06/21 08:50:17;;;;;;;6.13;2.33;;;;;;;22.32;54.07;101638.94;5026249;28;20026;-65
2022/06/21 08:53:01;;;;;;;6.07;2.88;;;;;;;22.47;52.58;101639.53;5044199;28;20021;-66
2022/06/21 08:55:52;;;;;;;7.82;2.63;;;;;;;22.92;50.54;101639.34;5029957;28;20034;-67
2022/06/21 08:58:37;;;;;;;6.18;2.10;;;;;;;23.78;45.01;101641.03;5027393;28;20076;-65
2022/06/21 09:01:15;;;;;;;5.65;2.10;;;;;;;24.10;44.48;101641.88;5019614;28;20492;-66
2022/06/21 09:03:52;;;;;;;15.23;2.88;;;;;;;24.16;43.61;101633.22;5020097;28;20021;-66
2022/06/21 09:06:37;;;;;;;6.03;2.35;;;;;;;23.88;44.74;101636.50;5029025;28;20033;-67
2022/06/21 09:09:24;;;;;;;9.25;2.50;;;;;;;24.09;44.28;101640.16;5022705;28;20030;-66
2022/06/21 09:12:11;;;;;;;4.82;2.20;;;;;;;23.81;43.26;101639.91;5029980;28;20022;-65
2022/06/21 09:15:09;;;;;;;5.82;2.28;;;;;;;23.65;43.36;101629.59;5014254;28;20030;-66
2022/06/21 09:17:43;;;;;;;7.57;2.60;;;;;;;23.39;44.06;101625.47;5030204;28;20025;-65
2022/06/21 09:20:46;;;;;;;5.88;2.60;;;;;;;23.58;46.25;101628.41;5025575;28;20037;-66
2022/06/21 09:23:36;;;;;;;5.50;2.70;;;;;;;24.66;43.27;101624.19;5018039;28;20117;-66
2022/06/21 09:26:11;;;;;;;8.00;2.63;;;;;;;24.99;39.92;101627.47;5017777;28;20022;-66
2022/06/21 09:29:02;;;;;;;7.25;2.75;;;;;;;25.80;40.95;101620.69;5023926;28;20037;-67
2022/06/21 09:31:27;;;;;;;;;;;;;;;26.42;37.87;101620.91;5024666;28;20552;-66
2022/06/21 09:34:06;;;;;;;5.47;2.30;;;;;;;26.19;38.23;101625.94;5049054;28;20035;-66
2022/06/21 09:37:08;;;;;;;7.90;2.78;;;;;;;26.27;40.89;101615.16;5042212;28;20211;-66
2022/06/21 09:39:42;;;;;;;6.78;2.30;;;;;;;25.97;37.50;101617.19;5033853;28;20068;-66
2022/06/21 09:42:26;;;;;;;6.65;2.45;;;;;;;25.10;40.87;101623.72;5034002;28;20029;-66
2022/06/21 09:45:38;;;;;;;5.20;2.45;;;;;;;23.94;39.46;101616.22;5023112;28;20029;-66
2022/06/21 09:48:47;;;;;;;7.68;2.45;;;;;;;24.64;41.44;101621.63;5015733;28;20546;-66
2022/06/21 09:51:49;;;;;;;5.78;2.63;;;;;;;25.92;39.75;101607.78;5037438;28;20026;-66
2022/06/21 09:54:38;;;;;;;5.07;2.40;;;;;;;26.76;36.07;101603.94;5030621;28;20060;-66
2022/06/21 09:57:21;;;;;;;4.70;2.50;;;;;;;26.55;34.82;101592.50;5032186;28;20086;-67
2022/06/21 10:00:11;;;;;;;9.02;2.83;;;;;;;26.99;34.44;101589.84;5032771;28;20074;-66
2022/06/21 10:02:56;;;;;;;5.80;2.45;;;;;;;26.26;34.60;101597.16;5037866;28;20017;-66
2022/06/21 10:05:40;;;;;;;6.85;2.60;;;;;;;25.44;37.65;101590.72;5051477;28;20033;-67
2022/06/21 10:08:34;;;;;;;5.68;3.25;;;;;;;24.78;41.94;101589.69;5040227;28;20017;-66
2022/06/21 10:11:05;;;;;;;5.70;2.88;;;;;;;24.12;40.68;101596.59;5036347;28;20040;-66
2022/06/21 10:14:14;;;;;;;8.07;3.53;;;;;;;23.19;42.06;101593.94;5030948;28;20381;-67
2022/06/21 10:17:01;;;;;;;4.97;2.60;;;;;;;22.95;45.48;101594.19;5033213;28;20048;-66
2022/06/21 10:20:07;;;;;;;3.92;2.40;;;;;;;23.18;43.45;101576.84;5040369;28;20034;-67
2022/06/21 10:22:35;;;;;;;6.07;3.20;;;;;;;23.14;43.82;101583.47;5019217;28;20075;-66
2022/06/21 10:25:12;;;;;;;6.20;2.65;;;;;;;23.39;44.54;101579.53;5028768;28;20029;-66
2022/06/21 10:28:23;;;;;;;6.43;3.03;;;;;;;23.70;43.98;101574.09;5032047;28;20025;-64
2022/06/21 10:31:27;;;;;;;7.20;2.67;;;;;;;23.70;41.28;101567.84;5031263;28;20331;-66
2022/06/21 10:34:20;;;;;;;8.85;2.92;;;;;;;24.61;40.96;101570.44;5027265;28;20370;-65
2022/06/21 10:37:01;;;;;;;6.82;2.83;;;;;;;25.40;38.73;101567.59;5032282;28;20063;-66
2022/06/21 10:39:50;;;;;;;7.55;3.72;;;;;;;24.70;40.78;101561.47;5031647;28;20055;-66
2022/06/21 10:42:47;;;;;;;5.68;3.22;;;;;;;24.26;41.34;101569.16;5032011;28;20108;-67
2022/06/21 10:45:35;;;;;;;6.32;3.15;;;;;;;24.43;41.23;101559.47;5032151;28;20442;-66
2022/06/21 10:48:12;;;;;;;7.72;3.50;;;;;;;24.54;40.06;101556.63;5032841;28;20083;-66
2022/06/21 10:50:40;;;;;;;4.68;2.70;;;;;;;24.99;39.87;101562.44;5030777;28;20029;-67
2022/06/21 10:53:21;;;;;;;4.90;2.50;;;;;;;25.07;41.75;101559.00;5045126;28;20128;-65
2022/06/21 10:59:04;;;;;;;7.25;3.05;;;;;;;25.90;36.56;101558.25;5036448;28;20034;-66
2022/06/21 11:01:44;;;;;;;6.80;2.63;;;;;;;26.01;37.46;101558.00;5030278;28;20025;-67
2022/06/21 11:04:43;;;;;;;5.00;2.47;;;;;;;26.43;37.22;101567.44;5028361;28;20059;-66
2022/06/21 11:07:33;;;;;;;6.40;2.55;;;;;;;26.59;34.23;101564.88;5031689;28;20037;-66
2022/06/21 11:10:14;;;;;;;3.97;2.30;;;;;;;26.58;34.39;101570.47;5029633;28;20053;-67
2022/06/21 11:12:53;;;;;;;4.80;2.60;;;;;;;26.29;34.31;101568.84;5030137;28;20022;-66
2022/06/21 11:15:27;;;;;;;6.15;2.90;;;;;;;25.95;36.33;101561.34;5031111;28;20482;-67
2022/06/21 11:18:17;;;;;;;4.35;2.20;;;;;;;26.74;36.08;101559.78;5024917;28;20100;-66
2022/06/21 11:21:15;;;;;;;5.40;2.30;;;;;;;26.69;36.42;101555.78;5030575;28;20140;-66
2022/06/21 11:24:15;;;;;;;6.07;1.90;;;;;;;26.48;34.98;101567.84;5027330;28;20402;-66
2022/06/21 11:27:06;;;;;;;2.63;1.80;;;;;;;26.36;35.39;101564.50;5025839;28;20493;-67
2022/06/21 11:29:37;;;;;;;3.67;2.00;;;;;;;25.80;32.88;101561.00;5027513;28;20531;-66
2022/06/21 11:32:21;;;;;;;4.22;2.20;;;;;;;25.29;36.14;101563.19;5031315;28;20076;-67
2022/06/21 11:34:53;;;;;;;12.23;2.38;;;;;;;25.47;37.35;101558.72;5030448;28;20037;-67
2022/06/21 11:37:30;;;;;;;6.07;2.50;;;;;;;25.63;37.40;101559.97;5029870;28;20045;-67
2022/06/21 11:40:22;;;;;;;7.03;2.38;;;;;;;25.42;35.50;101558.31;5031063;28;20100;-67
2022/06/21 11:42:57;;;;;;;6.03;2.40;;;;;;;25.22;37.19;101556.66;5011205;28;20124;-67
2022/06/21 11:45:49;;;;;;;7.88;2.70;;;;;;;24.90;37.87;101557.88;5018635;28;20056;-66
2022/06/21 11:48:30;;;;;;;9.40;2.60;;;;;;;24.93;39.04;101558.44;5029525;28;20038;-66
2022/06/21 11:51:10;;;;;;;7.43;2.80;;;;;;;24.74;38.90;101559.31;5030259;28;20065;-68
2022/06/21 11:54:00;;;;;;;6.27;3.17;;;;;;;24.53;40.75;101556.75;5028708;28;20043;-65
2022/06/21 11:56:49;;;;;;;7.70;3.08;;;;;;;24.00;39.34;101553.44;5030968;28;20056;-66
2022/06/21 11:59:28;;;;;;;8.05;3.28;;;;;;;23.52;40.09;101543.31;5029667;28;20116;-67
2022/06/21 12:01:59;;;;;;;5.25;3.30;;;;;;;23.13;43.24;101541.25;5025961;28;20037;-65
2022/06/21 12:04:42;;;;;;;5.03;2.53;;;;;;;23.74;43.95;101547.66;5028409;28;20022;-66
2022/06/21 12:07:12;;;;;;;7.15;2.85;;;;;;;24.10;42.42;101533.66;5028794;28;20477;-66
2022/06/21 12:09:56;;;;;;;7.07;3.40;;;;;;;24.64;41.84;101544.94;5030292;28;20602;-66
2022/06/21 12:12:36;;;;;;;5.93;3.72;;;;;;;24.79;41.21;101534.53;5029116;28;20037;-65
2022/06/21 12:15:43;;;;;;;5.93;3.75;;;;;;;25.14;38.50;101528.44;5041230;28;20111;-65